sensor_id;sensor_type;location;lat;lon;timestamp;temperature;humidity
26541;DHT22;14206;50.202;10.948;2022-11-03T00:00:35;5.20;96.60
26541;DHT22;14206;50.202;10.948;2022-11-03T00:03:22;5.30;96.60
26541;DHT22;14206;50.202;10.948;2022-11-03T00:06:02;5.30;96.60
26541;DHT22;14206;50.202;10.948;2022-11-03T00:08:49;5.40;96.60
26541;DHT22;14206;50.202;10.948;2022-11-03T00:11:35;5.40;96.60
26541;DHT22;14206;50.202;10.948;2022-11-03T00:14:22;5.50;96.60
26541;DHT22;14206;50.202;10.948;2022-11-03T00:17:02;5.50;96.60
26541;DHT22;14206;50.202;10.948;2022-11-03T00:19:49;5.60;96.60
26541;DHT22;14206;50.202;10.948;2022-11-03T00:22:37;5.60;96.60
26541;DHT22;14206;50.202;10.948;2022-11-03T00:25:17;5.60;96.60
26541;DHT22;14206;50.202;10.948;2022-11-03T00:28:04;5.60;96.60
26541;DHT22;14206;50.202;10.948;2022-11-03T00:30:38;5.70;96.60
26541;DHT22;14206;50.202;10.948;2022-11-03T00:33:33;5.70;96.60
26541;DHT22;14206;50.202;10.948;2022-11-03T00:36:16;5.60;96.60
26541;DHT22;14206;50.202;10.948;2022-11-03T00:39:04;5.60;96.60
26541;DHT22;14206;50.202;10.948;2022-11-03T00:41:38;5.60;96.60
26541;DHT22;14206;50.202;10.948;2022-11-03T00:44:32;5.60;96.60
26541;DHT22;14206;50.202;10.948;2022-11-03T00:47:05;5.60;96.60
26541;DHT22;14206;50.202;10.948;2022-11-03T00:50:04;5.60;96.60
26541;DHT22;14206;50.202;10.948;2022-11-03T00:52:43;5.60;96.60
26541;DHT22;14206;50.202;10.948;2022-11-03T00:55:30;5.60;96.60
26541;DHT22;14206;50.202;10.948;2022-11-03T00:58:10;5.70;96.60
26541;DHT22;14206;50.202;10.948;2022-11-03T01:01:04;5.70;96.60
26541;DHT22;14206;50.202;10.948;2022-11-03T01:03:49;5.70;96.60
26541;DHT22;14206;50.202;10.948;2022-11-03T01:07:02;5.70;96.60
26541;DHT22;14206;50.202;10.948;2022-11-03T01:09:38;5.70;96.60
26541;DHT22;14206;50.202;10.948;2022-11-03T01:12:32;5.70;96.60
26541;DHT22;14206;50.202;10.948;2022-11-03T01:15:06;5.70;96.60
26541;DHT22;14206;50.202;10.948;2022-11-03T01:17:59;5.70;96.60
26541;DHT22;14206;50.202;10.948;2022-11-03T01:20:39;5.60;96.60
26541;DHT22;14206;50.202;10.948;2022-11-03T01:23:26;5.50;96.60
26541;DHT22;14206;50.202;10.948;2022-11-03T01:26:08;5.50;96.60
26541;DHT22;14206;50.202;10.948;2022-11-03T01:28:57;5.40;96.60
26541;DHT22;14206;50.202;10.948;2022-11-03T01:31:37;5.40;96.60
26541;DHT22;14206;50.202;10.948;2022-11-03T01:34:24;5.30;96.60
26541;DHT22;14206;50.202;10.948;2022-11-03T01:37:04;5.30;96.60
26541;DHT22;14206;50.202;10.948;2022-11-03T01:39:51;5.20;96.60
26541;DHT22;14206;50.202;10.948;2022-11-03T01:42:31;5.20;96.60
26541;DHT22;14206;50.202;10.948;2022-11-03T01:45:19;5.10;96.60
26541;DHT22;14206;50.202;10.948;2022-11-03T01:48:07;5.10;96.60
26541;DHT22;14206;50.202;10.948;2022-11-03T01:50:55;5.10;96.60
26541;DHT22;14206;50.202;10.948;2022-11-03T01:53:36;5.10;96.60
26541;DHT22;14206;50.202;10.948;2022-11-03T01:56:29;5.10;96.60
26541;DHT22;14206;50.202;10.948;2022-11-03T01:59:11;5.00;96.60
26541;DHT22;14206;50.202;10.948;2022-11-03T02:01:58;5.00;96.60
26541;DHT22;14206;50.202;10.948;2022-11-03T02:04:39;5.00;96.60
26541;DHT22;14206;50.202;10.948;2022-11-03T02:07:52;5.00;96.60
26541;DHT22;14206;50.202;10.948;2022-11-03T02:10:35;4.90;96.60
26541;DHT22;14206;50.202;10.948;2022-11-03T02:13:25;4.90;96.60
26541;DHT22;14206;50.202;10.948;2022-11-03T02:16:09;4.90;96.60
26541;DHT22;14206;50.202;10.948;2022-11-03T02:18:57;4.90;96.60
26541;DHT22;14206;50.202;10.948;2022-11-03T02:27:47;5.00;96.60
26541;DHT22;14206;50.202;10.948;2022-11-03T02:33:47;5.00;96.60
26541;DHT22;14206;50.202;10.948;2022-11-03T02:36:50;5.00;96.60
26541;DHT22;14206;50.202;10.948;2022-11-03T02:39:33;5.00;96.60
26541;DHT22;14206;50.202;10.948;2022-11-03T02:42:29;5.00;96.60
26541;DHT22;14206;50.202;10.948;2022-11-03T02:45:06;5.10;96.60
26541;DHT22;14206;50.202;10.948;2022-11-03T02:48:02;5.10;96.60
26541;DHT22;14206;50.202;10.948;2022-11-03T02:50:45;5.10;96.60
26541;DHT22;14206;50.202;10.948;2022-11-03T02:53:38;5.00;96.60
26541;DHT22;14206;50.202;10.948;2022-11-03T02:56:21;5.10;96.60
26541;DHT22;14206;50.202;10.948;2022-11-03T02:59:13;5.10;96.60
26541;DHT22;14206;50.202;10.948;2022-11-03T03:02:11;5.10;96.60
26541;DHT22;14206;50.202;10.948;2022-11-03T03:05:03;5.10;96.60
26541;DHT22;14206;50.202;10.948;2022-11-03T03:07:47;5.10;96.60
26541;DHT22;14206;50.202;10.948;2022-11-03T03:10:38;5.00;96.60
26541;DHT22;14206;50.202;10.948;2022-11-03T03:13:20;5.00;96.60
26541;DHT22;14206;50.202;10.948;2022-11-03T03:16:15;4.90;96.60
26541;DHT22;14206;50.202;10.948;2022-11-03T03:19:18;4.90;96.60
26541;DHT22;14206;50.202;10.948;2022-11-03T03:22:15;4.90;96.60
26541;DHT22;14206;50.202;10.948;2022-11-03T03:28:10;4.80;96.60
26541;DHT22;14206;50.202;10.948;2022-11-03T03:30:56;4.80;96.60
26541;DHT22;14206;50.202;10.948;2022-11-03T03:33:46;4.70;96.60
26541;DHT22;14206;50.202;10.948;2022-11-03T03:36:39;4.80;96.60
26541;DHT22;14206;50.202;10.948;2022-11-03T03:39:31;4.80;96.60
26541;DHT22;14206;50.202;10.948;2022-11-03T03:42:13;4.80;96.60
26541;DHT22;14206;50.202;10.948;2022-11-03T03:45:03;4.70;96.60
26541;DHT22;14206;50.202;10.948;2022-11-03T03:47:43;4.70;96.60
26541;DHT22;14206;50.202;10.948;2022-11-03T03:50:37;4.70;96.60
26541;DHT22;14206;50.202;10.948;2022-11-03T03:53:18;4.70;96.60
26541;DHT22;14206;50.202;10.948;2022-11-03T03:56:13;4.70;96.60
26541;DHT22;14206;50.202;10.948;2022-11-03T03:58:53;4.70;96.60
26541;DHT22;14206;50.202;10.948;2022-11-03T04:01:40;4.80;96.60
26541;DHT22;14206;50.202;10.948;2022-11-03T04:04:20;4.80;96.60
26541;DHT22;14206;50.202;10.948;2022-11-03T04:07:07;4.80;96.60
26541;DHT22;14206;50.202;10.948;2022-11-03T04:10:18;4.80;96.60
26541;DHT22;14206;50.202;10.948;2022-11-03T04:13:07;4.80;96.60
26541;DHT22;14206;50.202;10.948;2022-11-03T04:16:08;4.80;96.60
26541;DHT22;14206;50.202;10.948;2022-11-03T04:19:13;4.80;96.60
26541;DHT22;14206;50.202;10.948;2022-11-03T04:22:12;4.80;96.60
26541;DHT22;14206;50.202;10.948;2022-11-03T04:25:00;4.80;96.60
26541;DHT22;14206;50.202;10.948;2022-11-03T04:27:40;4.80;96.60
26541;DHT22;14206;50.202;10.948;2022-11-03T04:30:27;4.70;96.60
26541;DHT22;14206;50.202;10.948;2022-11-03T04:33:20;4.70;96.60
26541;DHT22;14206;50.202;10.948;2022-11-03T04:36:17;4.70;96.60
26541;DHT22;14206;50.202;10.948;2022-11-03T04:39:19;4.70;96.60
26541;DHT22;14206;50.202;10.948;2022-11-03T04:42:32;4.70;96.60
26541;DHT22;14206;50.202;10.948;2022-11-03T04:45:29;4.80;96.60
26541;DHT22;14206;50.202;10.948;2022-11-03T04:48:20;4.80;96.60
26541;DHT22;14206;50.202;10.948;2022-11-03T04:51:12;4.80;96.60
26541;DHT22;14206;50.202;10.948;2022-11-03T04:54:06;4.80;96.60
26541;DHT22;14206;50.202;10.948;2022-11-03T04:56:52;4.80;96.60
26541;DHT22;14206;50.202;10.948;2022-11-03T04:59:40;4.70;96.60
26541;DHT22;14206;50.202;10.948;2022-11-03T05:02:22;4.70;96.60
26541;DHT22;14206;50.202;10.948;2022-11-03T05:05:20;4.70;96.60
26541;DHT22;14206;50.202;10.948;2022-11-03T05:08:01;4.70;96.60
26541;DHT22;14206;50.202;10.948;2022-11-03T05:10:48;4.70;96.60
26541;DHT22;14206;50.202;10.948;2022-11-03T05:13:28;4.70;96.60
26541;DHT22;14206;50.202;10.948;2022-11-03T05:16:15;4.60;96.60
26541;DHT22;14206;50.202;10.948;2022-11-03T05:18:55;4.60;96.60
26541;DHT22;14206;50.202;10.948;2022-11-03T05:21:42;4.60;96.60
26541;DHT22;14206;50.202;10.948;2022-11-03T05:24:36;4.60;96.60
26541;DHT22;14206;50.202;10.948;2022-11-03T05:27:19;4.50;96.60
26541;DHT22;14206;50.202;10.948;2022-11-03T05:30:12;4.50;96.60
26541;DHT22;14206;50.202;10.948;2022-11-03T05:32:54;4.50;96.60
26541;DHT22;14206;50.202;10.948;2022-11-03T05:35:41;4.50;96.60
26541;DHT22;14206;50.202;10.948;2022-11-03T05:38:21;4.50;96.60
26541;DHT22;14206;50.202;10.948;2022-11-03T05:41:29;4.50;96.60
26541;DHT22;14206;50.202;10.948;2022-11-03T05:44:36;4.50;96.60
26541;DHT22;14206;50.202;10.948;2022-11-03T05:47:27;4.50;96.60
26541;DHT22;14206;50.202;10.948;2022-11-03T05:50:20;4.50;96.60
26541;DHT22;14206;50.202;10.948;2022-11-03T05:53:28;4.50;96.60
26541;DHT22;14206;50.202;10.948;2022-11-03T05:56:17;4.50;96.60
26541;DHT22;14206;50.202;10.948;2022-11-03T05:59:04;4.40;96.60
26541;DHT22;14206;50.202;10.948;2022-11-03T06:01:46;4.40;96.60
26541;DHT22;14206;50.202;10.948;2022-11-03T06:04:37;4.40;96.60
26541;DHT22;14206;50.202;10.948;2022-11-03T06:07:25;4.40;96.60
26541;DHT22;14206;50.202;10.948;2022-11-03T06:10:30;4.30;96.60
26541;DHT22;14206;50.202;10.948;2022-11-03T06:13:15;4.30;96.60
26541;DHT22;14206;50.202;10.948;2022-11-03T06:22:17;4.40;96.60
26541;DHT22;14206;50.202;10.948;2022-11-03T06:27:59;4.50;96.60
26541;DHT22;14206;50.202;10.948;2022-11-03T06:30:48;4.50;96.60
26541;DHT22;14206;50.202;10.948;2022-11-03T06:33:33;4.60;96.60
26541;DHT22;14206;50.202;10.948;2022-11-03T06:36:31;4.70;96.60
26541;DHT22;14206;50.202;10.948;2022-11-03T06:39:22;4.70;96.60
26541;DHT22;14206;50.202;10.948;2022-11-03T06:42:19;4.80;96.60
26541;DHT22;14206;50.202;10.948;2022-11-03T06:45:24;4.90;96.60
26541;DHT22;14206;50.202;10.948;2022-11-03T06:48:11;5.00;96.60
26541;DHT22;14206;50.202;10.948;2022-11-03T06:50:55;5.10;96.60
26541;DHT22;14206;50.202;10.948;2022-11-03T06:53:44;5.20;96.60
26541;DHT22;14206;50.202;10.948;2022-11-03T06:56:29;5.40;96.60
26541;DHT22;14206;50.202;10.948;2022-11-03T06:59:17;5.50;96.60
26541;DHT22;14206;50.202;10.948;2022-11-03T07:01:59;5.70;96.60
26541;DHT22;14206;50.202;10.948;2022-11-03T07:04:46;5.80;96.60
26541;DHT22;14206;50.202;10.948;2022-11-03T07:07:26;6.00;96.60
26541;DHT22;14206;50.202;10.948;2022-11-03T07:10:13;6.20;96.60
26541;DHT22;14206;50.202;10.948;2022-11-03T07:12:47;6.40;96.60
26541;DHT22;14206;50.202;10.948;2022-11-03T07:15:46;6.60;96.60
26541;DHT22;14206;50.202;10.948;2022-11-03T07:18:39;6.80;96.60
26541;DHT22;14206;50.202;10.948;2022-11-03T07:21:44;7.00;96.60
26541;DHT22;14206;50.202;10.948;2022-11-03T07:24:40;7.20;96.60
26541;DHT22;14206;50.202;10.948;2022-11-03T07:27:28;7.40;96.60
26541;DHT22;14206;50.202;10.948;2022-11-03T07:30:18;7.60;96.60
26541;DHT22;14206;50.202;10.948;2022-11-03T07:33:13;7.80;96.60
26541;DHT22;14206;50.202;10.948;2022-11-03T07:36:00;8.10;96.60
26541;DHT22;14206;50.202;10.948;2022-11-03T07:38:50;8.40;96.60
26541;DHT22;14206;50.202;10.948;2022-11-03T07:41:38;8.80;96.60
26541;DHT22;14206;50.202;10.948;2022-11-03T07:44:19;9.10;96.60
26541;DHT22;14206;50.202;10.948;2022-11-03T07:47:11;9.50;96.00
26541;DHT22;14206;50.202;10.948;2022-11-03T07:49:54;9.90;95.50
26541;DHT22;14206;50.202;10.948;2022-11-03T07:52:42;10.40;95.00
26541;DHT22;14206;50.202;10.948;2022-11-03T07:55:22;11.00;92.20
26541;DHT22;14206;50.202;10.948;2022-11-03T07:58:24;11.40;89.50
26541;DHT22;14206;50.202;10.948;2022-11-03T08:04:50;12.10;87.10
26541;DHT22;14206;50.202;10.948;2022-11-03T08:07:11;12.30;86.90
26541;DHT22;14206;50.202;10.948;2022-11-03T08:09:58;12.40;85.00
26541;DHT22;14206;50.202;10.948;2022-11-03T08:12:38;12.40;86.80
26541;DHT22;14206;50.202;10.948;2022-11-03T08:15:25;12.40;86.00
26541;DHT22;14206;50.202;10.948;2022-11-03T08:18:05;12.40;86.20
26541;DHT22;14206;50.202;10.948;2022-11-03T08:20:59;12.40;86.50
26541;DHT22;14206;50.202;10.948;2022-11-03T08:23:46;12.40;86.10
26541;DHT22;14206;50.202;10.948;2022-11-03T08:26:26;12.30;86.00
26541;DHT22;14206;50.202;10.948;2022-11-03T08:29:20;12.20;86.10
26541;DHT22;14206;50.202;10.948;2022-11-03T08:32:00;12.20;86.20
26541;DHT22;14206;50.202;10.948;2022-11-03T08:34:47;12.10;86.50
26541;DHT22;14206;50.202;10.948;2022-11-03T08:37:27;12.10;86.90
26541;DHT22;14206;50.202;10.948;2022-11-03T08:40:14;12.10;86.80
26541;DHT22;14206;50.202;10.948;2022-11-03T08:42:47;12.10;87.50
26541;DHT22;14206;50.202;10.948;2022-11-03T08:45:41;12.20;87.20
26541;DHT22;14206;50.202;10.948;2022-11-03T08:48:14;12.50;86.90
26541;DHT22;14206;50.202;10.948;2022-11-03T08:51:08;12.50;86.20
26541;DHT22;14206;50.202;10.948;2022-11-03T08:53:45;12.70;86.00
26541;DHT22;14206;50.202;10.948;2022-11-03T08:56:39;12.60;85.50
26541;DHT22;14206;50.202;10.948;2022-11-03T08:59:20;12.70;85.70
26541;DHT22;14206;50.202;10.948;2022-11-03T09:02:07;12.90;85.90
26541;DHT22;14206;50.202;10.948;2022-11-03T09:04:47;13.20;85.70
26541;DHT22;14206;50.202;10.948;2022-11-03T09:07:34;13.40;84.10
26541;DHT22;14206;50.202;10.948;2022-11-03T09:10:27;13.60;83.40
26541;DHT22;14206;50.202;10.948;2022-11-03T09:13:21;13.50;82.50
26541;DHT22;14206;50.202;10.948;2022-11-03T09:15:54;13.50;82.90
26541;DHT22;14206;50.202;10.948;2022-11-03T09:18:48;13.60;83.00
26541;DHT22;14206;50.202;10.948;2022-11-03T09:21:21;13.70;82.80
26541;DHT22;14206;50.202;10.948;2022-11-03T09:24:15;13.80;81.70
26541;DHT22;14206;50.202;10.948;2022-11-03T09:26:55;13.90;81.80
26541;DHT22;14206;50.202;10.948;2022-11-03T09:29:42;14.00;81.00
26541;DHT22;14206;50.202;10.948;2022-11-03T09:32:42;14.20;81.20
26541;DHT22;14206;50.202;10.948;2022-11-03T09:35:29;14.60;79.50
26541;DHT22;14206;50.202;10.948;2022-11-03T09:38:09;14.90;79.70
26541;DHT22;14206;50.202;10.948;2022-11-03T09:40:56;15.40;79.30
26541;DHT22;14206;50.202;10.948;2022-11-03T09:43:52;15.80;77.60
26541;DHT22;14206;50.202;10.948;2022-11-03T09:46:40;16.00;75.80
26541;DHT22;14206;50.202;10.948;2022-11-03T09:49:14;16.00;76.20
26541;DHT22;14206;50.202;10.948;2022-11-03T09:52:11;16.00;76.60
26541;DHT22;14206;50.202;10.948;2022-11-03T09:54:48;16.20;75.60
26541;DHT22;14206;50.202;10.948;2022-11-03T09:57:44;16.40;75.90
26541;DHT22;14206;50.202;10.948;2022-11-03T10:00:26;16.50;75.20
26541;DHT22;14206;50.202;10.948;2022-11-03T10:03:16;16.60;75.40
26541;DHT22;14206;50.202;10.948;2022-11-03T10:05:49;16.90;73.80
26541;DHT22;14206;50.202;10.948;2022-11-03T10:08:45;17.20;74.20
26541;DHT22;14206;50.202;10.948;2022-11-03T10:11:26;17.70;72.20
26541;DHT22;14206;50.202;10.948;2022-11-03T10:14:15;18.10;71.40
26541;DHT22;14206;50.202;10.948;2022-11-03T10:16:57;18.40;70.80
26541;DHT22;14206;50.202;10.948;2022-11-03T10:19:51;18.70;69.60
26541;DHT22;14206;50.202;10.948;2022-11-03T10:22:39;18.80;68.20
26541;DHT22;14206;50.202;10.948;2022-11-03T10:28:22;18.70;70.20
26541;DHT22;14206;50.202;10.948;2022-11-03T10:30:57;18.70;69.90
26541;DHT22;14206;50.202;10.948;2022-11-03T10:33:54;18.60;68.40
26541;DHT22;14206;50.202;10.948;2022-11-03T10:36:29;18.30;69.20
26541;DHT22;14206;50.202;10.948;2022-11-03T10:39:29;18.20;70.10
26541;DHT22;14206;50.202;10.948;2022-11-03T10:42:35;18.00;69.90
26541;DHT22;14206;50.202;10.948;2022-11-03T10:45:22;17.60;70.20
26541;DHT22;14206;50.202;10.948;2022-11-03T10:48:03;17.40;71.70
26541;DHT22;14206;50.202;10.948;2022-11-03T10:50:57;17.20;71.90
26541;DHT22;14206;50.202;10.948;2022-11-03T10:53:30;17.00;72.10
26541;DHT22;14206;50.202;10.948;2022-11-03T10:56:25;17.00;73.40
26541;DHT22;14206;50.202;10.948;2022-11-03T10:58:59;17.10;73.10
26541;DHT22;14206;50.202;10.948;2022-11-03T11:01:54;17.00;72.30
26541;DHT22;14206;50.202;10.948;2022-11-03T11:04:35;16.90;73.10
26541;DHT22;14206;50.202;10.948;2022-11-03T11:07:32;16.80;72.70
26541;DHT22;14206;50.202;10.948;2022-11-03T11:10:11;16.80;73.20
26541;DHT22;14206;50.202;10.948;2022-11-03T11:15:57;16.40;73.80
26541;DHT22;14206;50.202;10.948;2022-11-03T11:33:21;16.30;74.50
26541;DHT22;14206;50.202;10.948;2022-11-03T11:36:20;16.30;74.70
26541;DHT22;14206;50.202;10.948;2022-11-03T11:39:02;16.30;74.20
26541;DHT22;14206;50.202;10.948;2022-11-03T11:42:15;16.20;74.70
26541;DHT22;14206;50.202;10.948;2022-11-03T11:44:57;16.20;74.80
26541;DHT22;14206;50.202;10.948;2022-11-03T11:47:49;16.20;74.90
26541;DHT22;14206;50.202;10.948;2022-11-03T11:50:29;16.20;75.30
26541;DHT22;14206;50.202;10.948;2022-11-03T11:53:24;16.10;75.90
26541;DHT22;14206;50.202;10.948;2022-11-03T11:56:12;16.20;75.40
26541;DHT22;14206;50.202;10.948;2022-11-03T11:58:59;16.20;75.60
26541;DHT22;14206;50.202;10.948;2022-11-03T12:01:33;16.10;75.30
26541;DHT22;14206;50.202;10.948;2022-11-03T12:04:30;16.00;75.00
26541;DHT22;14206;50.202;10.948;2022-11-03T12:07:12;16.00;75.30
26541;DHT22;14206;50.202;10.948;2022-11-03T12:10:19;15.90;75.70
26541;DHT22;14206;50.202;10.948;2022-11-03T12:13:00;15.80;75.60
26541;DHT22;14206;50.202;10.948;2022-11-03T12:15:56;15.80;75.70
26541;DHT22;14206;50.202;10.948;2022-11-03T12:18:38;15.70;75.80
26541;DHT22;14206;50.202;10.948;2022-11-03T12:21:49;15.60;76.50
26541;DHT22;14206;50.202;10.948;2022-11-03T12:30:17;15.60;76.70
26541;DHT22;14206;50.202;10.948;2022-11-03T12:32:58;15.60;77.50
26541;DHT22;14206;50.202;10.948;2022-11-03T12:35:44;15.60;77.90
26541;DHT22;14206;50.202;10.948;2022-11-03T12:38:25;15.60;77.60
26541;DHT22;14206;50.202;10.948;2022-11-03T12:41:12;15.60;77.00
26541;DHT22;14206;50.202;10.948;2022-11-03T12:44:01;15.70;76.80
26541;DHT22;14206;50.202;10.948;2022-11-03T12:46:47;15.70;77.00
26541;DHT22;14206;50.202;10.948;2022-11-03T12:49:28;15.70;76.90
26541;DHT22;14206;50.202;10.948;2022-11-03T12:52:21;15.70;76.60
26541;DHT22;14206;50.202;10.948;2022-11-03T12:55:02;15.70;77.00
26541;DHT22;14206;50.202;10.948;2022-11-03T12:57:48;15.80;76.80
26541;DHT22;14206;50.202;10.948;2022-11-03T13:00:29;15.80;76.70
26541;DHT22;14206;50.202;10.948;2022-11-03T13:03:16;15.70;77.10
26541;DHT22;14206;50.202;10.948;2022-11-03T13:05:57;15.70;77.50
26541;DHT22;14206;50.202;10.948;2022-11-03T13:08:55;15.70;77.40
26541;DHT22;14206;50.202;10.948;2022-11-03T13:11:29;15.60;77.30
26541;DHT22;14206;50.202;10.948;2022-11-03T13:14:40;15.50;77.50
26541;DHT22;14206;50.202;10.948;2022-11-03T13:17:20;15.40;78.50
26541;DHT22;14206;50.202;10.948;2022-11-03T13:20:34;15.30;78.60
26541;DHT22;14206;50.202;10.948;2022-11-03T13:23:08;15.30;79.20
26541;DHT22;14206;50.202;10.948;2022-11-03T13:26:02;15.30;78.60
26541;DHT22;14206;50.202;10.948;2022-11-03T13:28:35;15.20;79.00
26541;DHT22;14206;50.202;10.948;2022-11-03T13:31:28;15.10;79.30
26541;DHT22;14206;50.202;10.948;2022-11-03T13:34:03;15.00;79.40
26541;DHT22;14206;50.202;10.948;2022-11-03T13:36:57;15.00;79.90
26541;DHT22;14206;50.202;10.948;2022-11-03T13:39:31;15.10;80.00
26541;DHT22;14206;50.202;10.948;2022-11-03T13:42:25;15.10;79.80
26541;DHT22;14206;50.202;10.948;2022-11-03T13:45:05;15.10;79.90
26541;DHT22;14206;50.202;10.948;2022-11-03T13:47:53;15.10;80.10
26541;DHT22;14206;50.202;10.948;2022-11-03T13:50:46;15.10;80.00
26541;DHT22;14206;50.202;10.948;2022-11-03T13:53:40;15.10;80.40
26541;DHT22;14206;50.202;10.948;2022-11-03T13:56:33;15.10;80.20
26541;DHT22;14206;50.202;10.948;2022-11-03T13:59:47;15.10;80.20
26541;DHT22;14206;50.202;10.948;2022-11-03T14:02:38;15.10;80.20
26541;DHT22;14206;50.202;10.948;2022-11-03T14:05:45;15.00;80.30
26541;DHT22;14206;50.202;10.948;2022-11-03T14:08:25;15.00;80.60
26541;DHT22;14206;50.202;10.948;2022-11-03T14:11:13;15.00;80.90
26541;DHT22;14206;50.202;10.948;2022-11-03T14:14:04;15.00;81.00
26541;DHT22;14206;50.202;10.948;2022-11-03T14:16:58;15.00;81.20
26541;DHT22;14206;50.202;10.948;2022-11-03T14:19:31;14.90;81.50
26541;DHT22;14206;50.202;10.948;2022-11-03T14:22:31;14.80;81.80
26541;DHT22;14206;50.202;10.948;2022-11-03T14:25:26;14.80;82.00
26541;DHT22;14206;50.202;10.948;2022-11-03T14:28:06;14.70;82.40
26541;DHT22;14206;50.202;10.948;2022-11-03T14:31:05;14.80;82.30
26541;DHT22;14206;50.202;10.948;2022-11-03T14:33:45;14.60;82.20
26541;DHT22;14206;50.202;10.948;2022-11-03T14:36:32;14.50;82.80
26541;DHT22;14206;50.202;10.948;2022-11-03T14:39:13;14.50;83.10
26541;DHT22;14206;50.202;10.948;2022-11-03T14:42:00;14.40;82.80
26541;DHT22;14206;50.202;10.948;2022-11-03T14:44:44;14.30;83.10
26541;DHT22;14206;50.202;10.948;2022-11-03T14:47:37;14.30;83.50
26541;DHT22;14206;50.202;10.948;2022-11-03T14:50:17;14.20;83.40
26541;DHT22;14206;50.202;10.948;2022-11-03T14:53:04;14.20;83.40
26541;DHT22;14206;50.202;10.948;2022-11-03T14:55:44;14.20;83.60
26541;DHT22;14206;50.202;10.948;2022-11-03T14:58:31;14.20;84.00
26541;DHT22;14206;50.202;10.948;2022-11-03T15:01:11;14.10;83.70
26541;DHT22;14206;50.202;10.948;2022-11-03T15:03:58;14.10;83.50
26541;DHT22;14206;50.202;10.948;2022-11-03T15:06:39;14.00;84.10
26541;DHT22;14206;50.202;10.948;2022-11-03T15:09:26;13.90;84.20
26541;DHT22;14206;50.202;10.948;2022-11-03T15:12:06;13.80;84.60
26541;DHT22;14206;50.202;10.948;2022-11-03T15:14:53;13.70;84.90
26541;DHT22;14206;50.202;10.948;2022-11-03T15:17:33;13.60;85.20
26541;DHT22;14206;50.202;10.948;2022-11-03T15:20:20;13.60;85.30
26541;DHT22;14206;50.202;10.948;2022-11-03T15:23:01;13.50;85.50
26541;DHT22;14206;50.202;10.948;2022-11-03T15:26:15;13.40;86.00
26541;DHT22;14206;50.202;10.948;2022-11-03T15:28:48;13.30;86.40
26541;DHT22;14206;50.202;10.948;2022-11-03T15:31:42;13.30;86.50
26541;DHT22;14206;50.202;10.948;2022-11-03T15:34:22;13.30;86.50
26541;DHT22;14206;50.202;10.948;2022-11-03T15:37:09;13.30;87.10
26541;DHT22;14206;50.202;10.948;2022-11-03T15:39:42;13.30;87.00
26541;DHT22;14206;50.202;10.948;2022-11-03T15:42:39;13.20;86.90
26541;DHT22;14206;50.202;10.948;2022-11-03T15:45:19;13.20;86.80
26541;DHT22;14206;50.202;10.948;2022-11-03T15:48:06;13.20;86.70
26541;DHT22;14206;50.202;10.948;2022-11-03T15:50:40;13.10;86.90
26541;DHT22;14206;50.202;10.948;2022-11-03T15:53:34;13.10;87.80
26541;DHT22;14206;50.202;10.948;2022-11-03T15:56:15;13.10;87.80
26541;DHT22;14206;50.202;10.948;2022-11-03T15:59:02;13.00;87.90
26541;DHT22;14206;50.202;10.948;2022-11-03T16:01:42;13.00;88.20
26541;DHT22;14206;50.202;10.948;2022-11-03T16:04:29;12.90;88.30
26541;DHT22;14206;50.202;10.948;2022-11-03T16:07:09;12.90;88.20
26541;DHT22;14206;50.202;10.948;2022-11-03T16:09:57;12.80;88.70
26541;DHT22;14206;50.202;10.948;2022-11-03T16:12:30;12.80;89.00
26541;DHT22;14206;50.202;10.948;2022-11-03T16:15:24;12.70;89.30
26541;DHT22;14206;50.202;10.948;2022-11-03T16:17:57;12.70;89.50
26541;DHT22;14206;50.202;10.948;2022-11-03T16:20:51;12.60;89.40
26541;DHT22;14206;50.202;10.948;2022-11-03T16:23:24;12.50;89.70
26541;DHT22;14206;50.202;10.948;2022-11-03T16:26:18;12.50;90.10
26541;DHT22;14206;50.202;10.948;2022-11-03T16:28:58;12.40;90.20
26541;DHT22;14206;50.202;10.948;2022-11-03T16:31:45;12.40;90.20
26541;DHT22;14206;50.202;10.948;2022-11-03T16:34:25;12.40;90.20
26541;DHT22;14206;50.202;10.948;2022-11-03T16:37:12;12.30;90.20
26541;DHT22;14206;50.202;10.948;2022-11-03T16:39:46;12.30;90.60
26541;DHT22;14206;50.202;10.948;2022-11-03T16:42:40;12.30;90.90
26541;DHT22;14206;50.202;10.948;2022-11-03T16:45:18;12.30;91.10
26541;DHT22;14206;50.202;10.948;2022-11-03T16:48:17;12.20;90.90
26541;DHT22;14206;50.202;10.948;2022-11-03T16:50:57;12.10;91.20
26541;DHT22;14206;50.202;10.948;2022-11-03T16:53:45;12.00;91.40
26541;DHT22;14206;50.202;10.948;2022-11-03T16:56:25;11.90;91.40
26541;DHT22;14206;50.202;10.948;2022-11-03T16:59:12;11.80;91.70
26541;DHT22;14206;50.202;10.948;2022-11-03T17:01:52;11.80;91.70
26541;DHT22;14206;50.202;10.948;2022-11-03T17:04:39;11.70;92.10
26541;DHT22;14206;50.202;10.948;2022-11-03T17:07:19;11.70;92.30
26541;DHT22;14206;50.202;10.948;2022-11-03T17:10:07;11.60;92.30
26541;DHT22;14206;50.202;10.948;2022-11-03T17:12:47;11.60;92.50
26541;DHT22;14206;50.202;10.948;2022-11-03T17:15:35;11.50;93.00
26541;DHT22;14206;50.202;10.948;2022-11-03T17:18:15;11.50;93.30
26541;DHT22;14206;50.202;10.948;2022-11-03T17:21:09;11.50;93.50
26541;DHT22;14206;50.202;10.948;2022-11-03T17:24:04;11.40;93.40
26541;DHT22;14206;50.202;10.948;2022-11-03T17:26:56;11.30;93.80
26541;DHT22;14206;50.202;10.948;2022-11-03T17:29:48;11.20;94.00
26541;DHT22;14206;50.202;10.948;2022-11-03T17:32:35;11.20;94.30
26541;DHT22;14206;50.202;10.948;2022-11-03T17:38:14;11.10;94.60
26541;DHT22;14206;50.202;10.948;2022-11-03T17:41:01;11.10;95.00
26541;DHT22;14206;50.202;10.948;2022-11-03T17:43:41;11.10;94.90
26541;DHT22;14206;50.202;10.948;2022-11-03T17:46:28;11.00;95.20
26541;DHT22;14206;50.202;10.948;2022-11-03T17:49:08;11.00;95.10
26541;DHT22;14206;50.202;10.948;2022-11-03T17:51:55;11.00;95.20
26541;DHT22;14206;50.202;10.948;2022-11-03T17:54:35;11.00;95.20
26541;DHT22;14206;50.202;10.948;2022-11-03T17:57:22;10.90;95.20
26541;DHT22;14206;50.202;10.948;2022-11-03T18:00:03;10.90;95.30
26541;DHT22;14206;50.202;10.948;2022-11-03T18:02:51;10.90;95.30
26541;DHT22;14206;50.202;10.948;2022-11-03T18:05:31;10.80;95.30
26541;DHT22;14206;50.202;10.948;2022-11-03T18:08:18;10.80;95.80
26541;DHT22;14206;50.202;10.948;2022-11-03T18:10:59;10.80;95.90
26541;DHT22;14206;50.202;10.948;2022-11-03T18:13:49;10.70;96.00
26541;DHT22;14206;50.202;10.948;2022-11-03T18:16:30;10.70;95.90
26541;DHT22;14206;50.202;10.948;2022-11-03T18:19:17;10.70;96.30
26541;DHT22;14206;50.202;10.948;2022-11-03T18:21:57;10.70;96.10